sensor_id;sensor_type;location;lat;lon;timestamp;P1;durP1;ratioP1;P2;durP2;ratioP2
82265;SDS011;71866;53.340;-6.308;2023-09-18T00:00:24;19.77;;;9.07;;
82265;SDS011;71866;53.340;-6.308;2023-09-18T00:02:52;20.33;;;9.43;;
82265;SDS011;71866;53.340;-6.308;2023-09-18T00:05:19;18.05;;;8.70;;
82265;SDS011;71866;53.340;-6.308;2023-09-18T00:07:46;18.58;;;8.60;;
82265;SDS011;71866;53.340;-6.308;2023-09-18T00:10:13;15.40;;;7.95;;
82265;SDS011;71866;53.340;-6.308;2023-09-18T00:12:40;18.52;;;8.35;;
82265;SDS011;71866;53.340;-6.308;2023-09-18T00:15:07;15.35;;;8.27;;
82265;SDS011;71866;53.340;-6.308;2023-09-18T00:17:35;14.23;;;7.72;;
82265;SDS011;71866;53.340;-6.308;2023-09-18T00:20:02;20.40;;;8.30;;
82265;SDS011;71866;53.340;-6.308;2023-09-18T00:22:31;15.10;;;7.65;;
82265;SDS011;71866;53.340;-6.308;2023-09-18T00:24:57;15.02;;;7.65;;
82265;SDS011;71866;53.340;-6.308;2023-09-18T00:27:24;13.77;;;6.97;;
82265;SDS011;71866;53.340;-6.308;2023-09-18T00:29:52;14.95;;;7.05;;
82265;SDS011;71866;53.340;-6.308;2023-09-18T00:32:18;10.93;;;6.32;;
82265;SDS011;71866;53.340;-6.308;2023-09-18T00:34:46;12.68;;;6.85;;
82265;SDS011;71866;53.340;-6.308;2023-09-18T00:37:13;12.60;;;6.38;;
82265;SDS011;71866;53.340;-6.308;2023-09-18T00:39:41;12.70;;;7.00;;
82265;SDS011;71866;53.340;-6.308;2023-09-18T00:42:09;13.95;;;7.55;;
82265;SDS011;71866;53.340;-6.308;2023-09-18T00:44:35;13.77;;;7.00;;
82265;SDS011;71866;53.340;-6.308;2023-09-18T00:47:02;14.70;;;7.22;;
82265;SDS011;71866;53.340;-6.308;2023-09-18T00:49:30;11.45;;;6.57;;
82265;SDS011;71866;53.340;-6.308;2023-09-18T00:51:57;15.88;;;7.45;;
82265;SDS011;71866;53.340;-6.308;2023-09-18T00:54:25;12.77;;;6.90;;
82265;SDS011;71866;53.340;-6.308;2023-09-18T00:56:52;13.10;;;7.18;;
82265;SDS011;71866;53.340;-6.308;2023-09-18T00:59:20;16.20;;;7.68;;
82265;SDS011;71866;53.340;-6.308;2023-09-18T01:04:16;17.35;;;8.32;;
82265;SDS011;71866;53.340;-6.308;2023-09-18T01:06:43;16.08;;;8.23;;
82265;SDS011;71866;53.340;-6.308;2023-09-18T01:09:11;14.90;;;7.63;;
82265;SDS011;71866;53.340;-6.308;2023-09-18T01:11:50;13.50;;;7.63;;
82265;SDS011;71866;53.340;-6.308;2023-09-18T01:14:40;14.73;;;6.90;;
82265;SDS011;71866;53.340;-6.308;2023-09-18T01:17:17;13.68;;;7.20;;
82265;SDS011;71866;53.340;-6.308;2023-09-18T01:22:14;11.70;;;5.70;;
82265;SDS011;71866;53.340;-6.308;2023-09-18T01:24:42;13.50;;;6.60;;
82265;SDS011;71866;53.340;-6.308;2023-09-18T01:27:12;11.10;;;6.07;;
82265;SDS011;71866;53.340;-6.308;2023-09-18T01:29:40;11.68;;;6.68;;
82265;SDS011;71866;53.340;-6.308;2023-09-18T01:32:07;12.68;;;5.63;;
82265;SDS011;71866;53.340;-6.308;2023-09-18T01:34:36;10.85;;;6.25;;
82265;SDS011;71866;53.340;-6.308;2023-09-18T01:37:06;14.77;;;6.93;;
82265;SDS011;71866;53.340;-6.308;2023-09-18T01:39:36;11.40;;;6.07;;
82265;SDS011;71866;53.340;-6.308;2023-09-18T01:42:04;15.25;;;6.82;;
82265;SDS011;71866;53.340;-6.308;2023-09-18T01:44:33;16.92;;;7.53;;
82265;SDS011;71866;53.340;-6.308;2023-09-18T01:47:02;17.95;;;7.93;;
82265;SDS011;71866;53.340;-6.308;2023-09-18T01:49:31;19.75;;;8.90;;
82265;SDS011;71866;53.340;-6.308;2023-09-18T01:52:00;17.63;;;7.75;;
82265;SDS011;71866;53.340;-6.308;2023-09-18T01:54:27;19.13;;;8.82;;
82265;SDS011;71866;53.340;-6.308;2023-09-18T01:56:55;19.80;;;8.68;;
82265;SDS011;71866;53.340;-6.308;2023-09-18T01:59:21;21.17;;;9.18;;
82265;SDS011;71866;53.340;-6.308;2023-09-18T02:01:50;22.00;;;9.00;;
82265;SDS011;71866;53.340;-6.308;2023-09-18T02:04:19;24.63;;;8.90;;
82265;SDS011;71866;53.340;-6.308;2023-09-18T02:07:06;20.02;;;8.90;;
82265;SDS011;71866;53.340;-6.308;2023-09-18T02:09:34;26.02;;;10.70;;
82265;SDS011;71866;53.340;-6.308;2023-09-18T02:12:00;24.23;;;10.68;;
82265;SDS011;71866;53.340;-6.308;2023-09-18T02:14:27;26.35;;;10.27;;
82265;SDS011;71866;53.340;-6.308;2023-09-18T02:16:55;22.98;;;9.60;;
82265;SDS011;71866;53.340;-6.308;2023-09-18T02:19:21;21.88;;;9.48;;
82265;SDS011;71866;53.340;-6.308;2023-09-18T02:21:48;22.88;;;9.98;;
82265;SDS011;71866;53.340;-6.308;2023-09-18T02:24:15;22.60;;;8.98;;
82265;SDS011;71866;53.340;-6.308;2023-09-18T02:26:42;22.48;;;9.45;;
82265;SDS011;71866;53.340;-6.308;2023-09-18T02:29:10;21.33;;;9.30;;
82265;SDS011;71866;53.340;-6.308;2023-09-18T02:31:37;21.77;;;8.75;;
82265;SDS011;71866;53.340;-6.308;2023-09-18T02:34:05;22.30;;;8.93;;
82265;SDS011;71866;53.340;-6.308;2023-09-18T02:36:33;19.73;;;8.35;;
82265;SDS011;71866;53.340;-6.308;2023-09-18T02:38:59;18.50;;;8.88;;
82265;SDS011;71866;53.340;-6.308;2023-09-18T02:41:27;20.23;;;8.55;;
82265;SDS011;71866;53.340;-6.308;2023-09-18T02:43:54;18.75;;;8.27;;
82265;SDS011;71866;53.340;-6.308;2023-09-18T02:46:21;19.17;;;8.00;;
82265;SDS011;71866;53.340;-6.308;2023-09-18T02:48:48;16.85;;;7.80;;
82265;SDS011;71866;53.340;-6.308;2023-09-18T02:51:16;18.42;;;8.10;;
82265;SDS011;71866;53.340;-6.308;2023-09-18T02:53:44;10.77;;;5.68;;
82265;SDS011;71866;53.340;-6.308;2023-09-18T02:56:11;11.93;;;5.85;;
82265;SDS011;71866;53.340;-6.308;2023-09-18T02:58:37;12.77;;;6.20;;
82265;SDS011;71866;53.340;-6.308;2023-09-18T03:01:06;11.65;;;5.80;;
82265;SDS011;71866;53.340;-6.308;2023-09-18T03:03:34;12.02;;;5.80;;
82265;SDS011;71866;53.340;-6.308;2023-09-18T03:06:02;12.25;;;5.30;;
82265;SDS011;71866;53.340;-6.308;2023-09-18T03:08:31;11.73;;;4.97;;
82265;SDS011;71866;53.340;-6.308;2023-09-18T03:10:58;10.15;;;5.18;;
82265;SDS011;71866;53.340;-6.308;2023-09-18T03:13:26;7.50;;;3.97;;
82265;SDS011;71866;53.340;-6.308;2023-09-18T03:15:55;8.70;;;4.07;;
82265;SDS011;71866;53.340;-6.308;2023-09-18T03:18:21;7.78;;;3.97;;
82265;SDS011;71866;53.340;-6.308;2023-09-18T03:20:49;7.25;;;4.10;;
82265;SDS011;71866;53.340;-6.308;2023-09-18T03:23:16;6.07;;;3.17;;
82265;SDS011;71866;53.340;-6.308;2023-09-18T03:25:43;5.32;;;3.00;;
82265;SDS011;71866;53.340;-6.308;2023-09-18T03:28:16;4.38;;;2.40;;
82265;SDS011;71866;53.340;-6.308;2023-09-18T03:30:42;4.88;;;2.10;;
82265;SDS011;71866;53.340;-6.308;2023-09-18T03:33:10;4.05;;;2.00;;
82265;SDS011;71866;53.340;-6.308;2023-09-18T03:35:47;3.25;;;2.00;;
82265;SDS011;71866;53.340;-6.308;2023-09-18T03:38:16;2.90;;;1.67;;
82265;SDS011;71866;53.340;-6.308;2023-09-18T03:40:43;4.72;;;1.80;;
82265;SDS011;71866;53.340;-6.308;2023-09-18T03:43:11;3.47;;;1.83;;
82265;SDS011;71866;53.340;-6.308;2023-09-18T03:45:38;3.45;;;1.60;;
82265;SDS011;71866;53.340;-6.308;2023-09-18T03:48:05;3.65;;;1.90;;
82265;SDS011;71866;53.340;-6.308;2023-09-18T03:50:33;3.15;;;1.80;;
82265;SDS011;71866;53.340;-6.308;2023-09-18T03:53:01;3.22;;;1.77;;
82265;SDS011;71866;53.340;-6.308;2023-09-18T03:55:28;4.55;;;2.10;;
82265;SDS011;71866;53.340;-6.308;2023-09-18T03:57:55;4.18;;;1.67;;
82265;SDS011;71866;53.340;-6.308;2023-09-18T04:00:23;3.15;;;1.83;;
82265;SDS011;71866;53.340;-6.308;2023-09-18T04:02:50;4.35;;;1.90;;
82265;SDS011;71866;53.340;-6.308;2023-09-18T04:05:18;5.07;;;1.92;;
82265;SDS011;71866;53.340;-6.308;2023-09-18T04:07:45;5.50;;;2.13;;
82265;SDS011;71866;53.340;-6.308;2023-09-18T04:10:16;3.15;;;1.75;;
82265;SDS011;71866;53.340;-6.308;2023-09-18T04:12:44;4.18;;;1.80;;
82265;SDS011;71866;53.340;-6.308;2023-09-18T04:15:13;3.63;;;1.80;;
82265;SDS011;71866;53.340;-6.308;2023-09-18T04:20:08;3.00;;;1.90;;
82265;SDS011;71866;53.340;-6.308;2023-09-18T04:22:36;2.70;;;1.27;;
82265;SDS011;71866;53.340;-6.308;2023-09-18T04:25:08;2.90;;;1.52;;
82265;SDS011;71866;53.340;-6.308;2023-09-18T04:27:35;3.47;;;1.52;;
82265;SDS011;71866;53.340;-6.308;2023-09-18T04:30:03;2.80;;;1.60;;
82265;SDS011;71866;53.340;-6.308;2023-09-18T04:32:31;2.78;;;1.42;;
82265;SDS011;71866;53.340;-6.308;2023-09-18T04:34:58;4.82;;;1.58;;
82265;SDS011;71866;53.340;-6.308;2023-09-18T04:37:25;2.85;;;1.67;;
82265;SDS011;71866;53.340;-6.308;2023-09-18T04:39:53;4.85;;;1.90;;
82265;SDS011;71866;53.340;-6.308;2023-09-18T04:42:20;3.03;;;1.52;;
82265;SDS011;71866;53.340;-6.308;2023-09-18T04:44:47;2.88;;;1.50;;
82265;SDS011;71866;53.340;-6.308;2023-09-18T04:47:13;7.13;;;2.38;;
82265;SDS011;71866;53.340;-6.308;2023-09-18T04:49:41;2.50;;;1.50;;
82265;SDS011;71866;53.340;-6.308;2023-09-18T04:52:08;2.80;;;1.55;;
82265;SDS011;71866;53.340;-6.308;2023-09-18T04:54:35;3.28;;;1.63;;
82265;SDS011;71866;53.340;-6.308;2023-09-18T04:57:02;4.47;;;2.00;;
82265;SDS011;71866;53.340;-6.308;2023-09-18T04:59:29;5.03;;;2.17;;
82265;SDS011;71866;53.340;-6.308;2023-09-18T05:01:56;3.40;;;1.88;;
82265;SDS011;71866;53.340;-6.308;2023-09-18T05:04:23;4.55;;;1.95;;
82265;SDS011;71866;53.340;-6.308;2023-09-18T05:06:50;3.42;;;1.73;;
82265;SDS011;71866;53.340;-6.308;2023-09-18T05:09:17;4.10;;;1.90;;
82265;SDS011;71866;53.340;-6.308;2023-09-18T05:11:45;2.88;;;1.80;;
82265;SDS011;71866;53.340;-6.308;2023-09-18T05:14:13;3.05;;;1.73;;
82265;SDS011;71866;53.340;-6.308;2023-09-18T05:16:40;4.50;;;1.73;;
82265;SDS011;71866;53.340;-6.308;2023-09-18T05:19:07;3.53;;;1.88;;
82265;SDS011;71866;53.340;-6.308;2023-09-18T05:21:34;5.05;;;2.08;;
82265;SDS011;71866;53.340;-6.308;2023-09-18T05:24:00;3.35;;;2.03;;
82265;SDS011;71866;53.340;-6.308;2023-09-18T05:26:28;3.83;;;1.77;;
82265;SDS011;71866;53.340;-6.308;2023-09-18T05:28:55;3.60;;;1.83;;
82265;SDS011;71866;53.340;-6.308;2023-09-18T05:31:23;4.53;;;1.90;;
82265;SDS011;71866;53.340;-6.308;2023-09-18T05:33:49;4.15;;;1.90;;
82265;SDS011;71866;53.340;-6.308;2023-09-18T05:36:17;3.33;;;1.73;;
82265;SDS011;71866;53.340;-6.308;2023-09-18T05:38:45;3.63;;;1.58;;
82265;SDS011;71866;53.340;-6.308;2023-09-18T05:41:11;4.45;;;1.90;;
82265;SDS011;71866;53.340;-6.308;2023-09-18T05:43:38;3.00;;;1.45;;
82265;SDS011;71866;53.340;-6.308;2023-09-18T05:46:06;3.03;;;1.58;;
82265;SDS011;71866;53.340;-6.308;2023-09-18T05:48:32;3.80;;;1.30;;
82265;SDS011;71866;53.340;-6.308;2023-09-18T05:51:01;3.65;;;1.25;;
82265;SDS011;71866;53.340;-6.308;2023-09-18T05:53:28;2.53;;;1.02;;
82265;SDS011;71866;53.340;-6.308;2023-09-18T05:55:55;4.32;;;1.20;;
82265;SDS011;71866;53.340;-6.308;2023-09-18T05:58:22;2.25;;;1.00;;
82265;SDS011;71866;53.340;-6.308;2023-09-18T06:00:49;3.72;;;0.93;;
82265;SDS011;71866;53.340;-6.308;2023-09-18T06:03:16;3.80;;;1.05;;
82265;SDS011;71866;53.340;-6.308;2023-09-18T06:05:44;4.47;;;0.90;;
82265;SDS011;71866;53.340;-6.308;2023-09-18T06:08:11;1.85;;;0.98;;
82265;SDS011;71866;53.340;-6.308;2023-09-18T06:10:37;2.70;;;0.80;;
82265;SDS011;71866;53.340;-6.308;2023-09-18T06:13:05;1.55;;;0.90;;
82265;SDS011;71866;53.340;-6.308;2023-09-18T06:15:32;3.63;;;0.90;;
82265;SDS011;71866;53.340;-6.308;2023-09-18T06:17:59;1.95;;;0.90;;
82265;SDS011;71866;53.340;-6.308;2023-09-18T06:20:27;3.65;;;0.80;;
82265;SDS011;71866;53.340;-6.308;2023-09-18T06:22:53;2.75;;;0.95;;
82265;SDS011;71866;53.340;-6.308;2023-09-18T06:25:21;2.78;;;0.90;;
82265;SDS011;71866;53.340;-6.308;2023-09-18T06:27:48;1.75;;;0.90;;
82265;SDS011;71866;53.340;-6.308;2023-09-18T06:30:14;1.27;;;0.70;;
82265;SDS011;71866;53.340;-6.308;2023-09-18T06:32:42;2.45;;;0.80;;
82265;SDS011;71866;53.340;-6.308;2023-09-18T06:35:10;2.75;;;0.70;;
82265;SDS011;71866;53.340;-6.308;2023-09-18T06:37:36;2.17;;;0.80;;
82265;SDS011;71866;53.340;-6.308;2023-09-18T06:40:05;1.30;;;1.02;;
82265;SDS011;71866;53.340;-6.308;2023-09-18T06:42:32;3.05;;;1.00;;
82265;SDS011;71866;53.340;-6.308;2023-09-18T06:44:59;0.90;;;0.90;;
82265;SDS011;71866;53.340;-6.308;2023-09-18T06:47:27;2.00;;;1.00;;
82265;SDS011;71866;53.340;-6.308;2023-09-18T06:49:54;0.60;;;0.60;;
82265;SDS011;71866;53.340;-6.308;2023-09-18T06:52:21;2.60;;;1.10;;
82265;SDS011;71866;53.340;-6.308;2023-09-18T06:54:48;2.88;;;1.20;;
82265;SDS011;71866;53.340;-6.308;2023-09-18T06:57:15;2.85;;;0.93;;
82265;SDS011;71866;53.340;-6.308;2023-09-18T06:59:42;2.65;;;1.13;;
82265;SDS011;71866;53.340;-6.308;2023-09-18T07:02:09;2.03;;;1.10;;
82265;SDS011;71866;53.340;-6.308;2023-09-18T07:04:36;2.28;;;0.95;;
82265;SDS011;71866;53.340;-6.308;2023-09-18T07:07:04;2.58;;;1.35;;
82265;SDS011;71866;53.340;-6.308;2023-09-18T07:09:30;1.88;;;1.00;;
82265;SDS011;71866;53.340;-6.308;2023-09-18T07:12:02;3.78;;;1.08;;
82265;SDS011;71866;53.340;-6.308;2023-09-18T07:14:28;2.95;;;1.10;;
82265;SDS011;71866;53.340;-6.308;2023-09-18T07:16:55;2.55;;;1.00;;
82265;SDS011;71866;53.340;-6.308;2023-09-18T07:19:23;3.53;;;1.05;;
82265;SDS011;71866;53.340;-6.308;2023-09-18T07:21:50;3.45;;;0.90;;
82265;SDS011;71866;53.340;-6.308;2023-09-18T07:24:17;4.43;;;0.70;;
82265;SDS011;71866;53.340;-6.308;2023-09-18T07:26:45;4.03;;;0.82;;
82265;SDS011;71866;53.340;-6.308;2023-09-18T07:29:13;3.58;;;0.85;;
82265;SDS011;71866;53.340;-6.308;2023-09-18T07:31:42;3.05;;;0.82;;
82265;SDS011;71866;53.340;-6.308;2023-09-18T07:34:09;1.67;;;0.93;;
82265;SDS011;71866;53.340;-6.308;2023-09-18T07:36:40;4.68;;;0.90;;
82265;SDS011;71866;53.340;-6.308;2023-09-18T07:39:06;4.40;;;1.83;;
82265;SDS011;71866;53.340;-6.308;2023-09-18T07:41:33;3.22;;;0.60;;
82265;SDS011;71866;53.340;-6.308;2023-09-18T07:44:01;4.70;;;1.02;;
82265;SDS011;71866;53.340;-6.308;2023-09-18T07:46:27;2.60;;;0.75;;
82265;SDS011;71866;53.340;-6.308;2023-09-18T07:48:54;4.10;;;0.65;;
82265;SDS011;71866;53.340;-6.308;2023-09-18T07:51:22;4.75;;;1.00;;
82265;SDS011;71866;53.340;-6.308;2023-09-18T07:53:50;1.40;;;0.70;;
82265;SDS011;71866;53.340;-6.308;2023-09-18T07:56:16;3.63;;;0.80;;
82265;SDS011;71866;53.340;-6.308;2023-09-18T07:58:43;3.25;;;0.95;;
82265;SDS011;71866;53.340;-6.308;2023-09-18T08:01:11;3.63;;;0.98;;
82265;SDS011;71866;53.340;-6.308;2023-09-18T08:03:39;5.07;;;1.00;;
82265;SDS011;71866;53.340;-6.308;2023-09-18T08:06:06;9.13;;;1.02;;
82265;SDS011;71866;53.340;-6.308;2023-09-18T08:08:32;2.58;;;0.82;;
82265;SDS011;71866;53.340;-6.308;2023-09-18T08:11:04;5.40;;;0.90;;
82265;SDS011;71866;53.340;-6.308;2023-09-18T08:13:33;2.45;;;0.93;;
82265;SDS011;71866;53.340;-6.308;2023-09-18T08:16:02;7.45;;;1.13;;
82265;SDS011;71866;53.340;-6.308;2023-09-18T08:18:31;7.28;;;1.23;;
82265;SDS011;71866;53.340;-6.308;2023-09-18T08:20:58;4.18;;;0.70;;
82265;SDS011;71866;53.340;-6.308;2023-09-18T08:23:26;8.88;;;1.00;;
82265;SDS011;71866;53.340;-6.308;2023-09-18T08:25:52;4.45;;;0.73;;
82265;SDS011;71866;53.340;-6.308;2023-09-18T08:28:19;4.20;;;0.95;;
82265;SDS011;71866;53.340;-6.308;2023-09-18T08:30:47;3.97;;;0.60;;
82265;SDS011;71866;53.340;-6.308;2023-09-18T08:33:13;3.97;;;0.80;;
82265;SDS011;71866;53.340;-6.308;2023-09-18T08:35:40;6.60;;;0.95;;
82265;SDS011;71866;53.340;-6.308;2023-09-18T08:38:08;0.82;;;0.40;;
82265;SDS011;71866;53.340;-6.308;2023-09-18T08:40:35;4.68;;;0.80;;
82265;SDS011;71866;53.340;-6.308;2023-09-18T08:43:03;4.90;;;0.73;;
82265;SDS011;71866;53.340;-6.308;2023-09-18T08:45:34;2.03;;;0.65;;
82265;SDS011;71866;53.340;-6.308;2023-09-18T08:48:01;3.33;;;0.77;;
82265;SDS011;71866;53.340;-6.308;2023-09-18T08:50:29;5.95;;;0.88;;
82265;SDS011;71866;53.340;-6.308;2023-09-18T08:52:57;4.97;;;0.80;;
82265;SDS011;71866;53.340;-6.308;2023-09-18T08:55:24;6.75;;;1.13;;
82265;SDS011;71866;53.340;-6.308;2023-09-18T08:57:52;6.20;;;0.80;;
82265;SDS011;71866;53.340;-6.308;2023-09-18T09:00:20;7.55;;;1.10;;
82265;SDS011;71866;53.340;-6.308;2023-09-18T09:02:47;5.35;;;0.77;;
82265;SDS011;71866;53.340;-6.308;2023-09-18T09:05:15;4.55;;;0.70;;
82265;SDS011;71866;53.340;-6.308;2023-09-18T09:07:42;3.15;;;0.80;;
82265;SDS011;71866;53.340;-6.308;2023-09-18T09:10:11;6.80;;;1.17;;
82265;SDS011;71866;53.340;-6.308;2023-09-18T09:12:53;5.32;;;1.13;;
82265;SDS011;71866;53.340;-6.308;2023-09-18T09:15:25;3.72;;;0.80;;
82265;SDS011;71866;53.340;-6.308;2023-09-18T09:18:14;4.03;;;0.63;;
82265;SDS011;71866;53.340;-6.308;2023-09-18T09:20:45;10.93;;;1.15;;
82265;SDS011;71866;53.340;-6.308;2023-09-18T09:23:23;4.35;;;0.80;;
82265;SDS011;71866;53.340;-6.308;2023-09-18T09:25:52;5.38;;;0.88;;
82265;SDS011;71866;53.340;-6.308;2023-09-18T09:28:29;4.72;;;1.35;;
82265;SDS011;71866;53.340;-6.308;2023-09-18T09:31:01;10.77;;;0.98;;
82265;SDS011;71866;53.340;-6.308;2023-09-18T09:33:28;8.63;;;1.52;;
82265;SDS011;71866;53.340;-6.308;2023-09-18T09:35:56;6.22;;;1.00;;
82265;SDS011;71866;53.340;-6.308;2023-09-18T09:38:31;4.38;;;0.75;;
82265;SDS011;71866;53.340;-6.308;2023-09-18T09:40:59;8.38;;;0.85;;
82265;SDS011;71866;53.340;-6.308;2023-09-18T09:43:31;6.38;;;1.08;;
82265;SDS011;71866;53.340;-6.308;2023-09-18T09:46:01;10.13;;;1.45;;
82265;SDS011;71866;53.340;-6.308;2023-09-18T09:48:29;5.53;;;0.98;;
82265;SDS011;71866;53.340;-6.308;2023-09-18T09:50:59;4.97;;;1.33;;
82265;SDS011;71866;53.340;-6.308;2023-09-18T09:53:41;3.15;;;0.75;;
82265;SDS011;71866;53.340;-6.308;2023-09-18T09:56:10;3.70;;;0.70;;
82265;SDS011;71866;53.340;-6.308;2023-09-18T09:58:39;6.45;;;1.13;;
82265;SDS011;71866;53.340;-6.308;2023-09-18T10:01:06;5.30;;;1.13;;
82265;SDS011;71866;53.340;-6.308;2023-09-18T10:03:36;7.78;;;1.15;;
82265;SDS011;71866;53.340;-6.308;2023-09-18T10:06:04;4.82;;;0.70;;
82265;SDS011;71866;53.340;-6.308;2023-09-18T10:08:32;4.97;;;0.70;;
82265;SDS011;71866;53.340;-6.308;2023-09-18T10:11:05;9.70;;;1.33;;
82265;SDS011;71866;53.340;-6.308;2023-09-18T10:13:36;8.23;;;1.30;;
82265;SDS011;71866;53.340;-6.308;2023-09-18T10:16:16;7.65;;;1.67;;
82265;SDS011;71866;53.340;-6.308;2023-09-18T10:21:46;1.92;;;0.40;;
82265;SDS011;71866;53.340;-6.308;2023-09-18T10:24:28;5.70;;;0.80;;
82265;SDS011;71866;53.340;-6.308;2023-09-18T10:27:01;6.38;;;1.05;;
82265;SDS011;71866;53.340;-6.308;2023-09-18T10:29:28;5.32;;;0.88;;
82265;SDS011;71866;53.340;-6.308;2023-09-18T10:31:57;5.47;;;0.70;;
82265;SDS011;71866;53.340;-6.308;2023-09-18T10:34:27;6.28;;;1.10;;
82265;SDS011;71866;53.340;-6.308;2023-09-18T10:36:56;5.95;;;1.05;;
82265;SDS011;71866;53.340;-6.308;2023-09-18T10:39:26;5.43;;;1.25;;
82265;SDS011;71866;53.340;-6.308;2023-09-18T10:41:56;2.67;;;0.77;;
82265;SDS011;71866;53.340;-6.308;2023-09-18T10:44:29;5.57;;;1.13;;
82265;SDS011;71866;53.340;-6.308;2023-09-18T10:46:56;5.82;;;1.27;;
82265;SDS011;71866;53.340;-6.308;2023-09-18T10:49:28;6.65;;;1.10;;
82265;SDS011;71866;53.340;-6.308;2023-09-18T10:51:55;5.60;;;1.00;;
82265;SDS011;71866;53.340;-6.308;2023-09-18T10:54:23;3.40;;;0.77;;
82265;SDS011;71866;53.340;-6.308;2023-09-18T10:56:52;5.22;;;1.15;;
82265;SDS011;71866;53.340;-6.308;2023-09-18T10:59:20;6.25;;;1.05;;
82265;SDS011;71866;53.340;-6.308;2023-09-18T11:01:49;3.50;;;0.70;;
82265;SDS011;71866;53.340;-6.308;2023-09-18T11:04:19;8.15;;;1.00;;
82265;SDS011;71866;53.340;-6.308;2023-09-18T11:09:21;4.97;;;1.02;;
82265;SDS011;71866;53.340;-6.308;2023-09-18T11:22:48;5.28;;;0.85;;
82265;SDS011;71866;53.340;-6.308;2023-09-18T11:28:03;6.55;;;0.95;;
82265;SDS011;71866;53.340;-6.308;2023-09-18T11:30:31;5.85;;;0.82;;
82265;SDS011;71866;53.340;-6.308;2023-09-18T11:32:58;13.45;;;2.10;;
82265;SDS011;71866;53.340;-6.308;2023-09-18T11:35:26;7.57;;;1.15;;
82265;SDS011;71866;53.340;-6.308;2023-09-18T11:38:03;4.57;;;0.60;;
82265;SDS011;71866;53.340;-6.308;2023-09-18T11:40:34;5.38;;;1.10;;
82265;SDS011;71866;53.340;-6.308;2023-09-18T11:45:49;6.25;;;0.93;;
82265;SDS011;71866;53.340;-6.308;2023-09-18T11:48:16;6.60;;;0.65;;
82265;SDS011;71866;53.340;-6.308;2023-09-18T11:50:44;2.88;;;0.68;;
82265;SDS011;71866;53.340;-6.308;2023-09-18T11:53:13;3.53;;;0.50;;
82265;SDS011;71866;53.340;-6.308;2023-09-18T11:55:39;2.67;;;0.73;;
82265;SDS011;71866;53.340;-6.308;2023-09-18T11:58:06;3.42;;;0.80;;
82265;SDS011;71866;53.340;-6.308;2023-09-18T12:00:34;2.55;;;0.55;;
82265;SDS011;71866;53.340;-6.308;2023-09-18T12:03:13;2.63;;;0.63;;
82265;SDS011;71866;53.340;-6.308;2023-09-18T12:05:41;3.60;;;0.70;;
82265;SDS011;71866;53.340;-6.308;2023-09-18T12:08:08;4.88;;;0.60;;
82265;SDS011;71866;53.340;-6.308;2023-09-18T12:10:34;4.00;;;1.10;;
82265;SDS011;71866;53.340;-6.308;2023-09-18T12:13:06;5.07;;;0.63;;
82265;SDS011;71866;53.340;-6.308;2023-09-18T12:15:33;2.70;;;0.70;;
82265;SDS011;71866;53.340;-6.308;2023-09-18T12:18:33;4.63;;;0.75;;
82265;SDS011;71866;53.340;-6.308;2023-09-18T12:20:55;7.43;;;1.10;;
82265;SDS011;71866;53.340;-6.308;2023-09-18T12:23:22;5.57;;;0.70;;
82265;SDS011;71866;53.340;-6.308;2023-09-18T12:25:56;6.72;;;0.68;;
82265;SDS011;71866;53.340;-6.308;2023-09-18T12:28:26;2.67;;;0.57;;
82265;SDS011;71866;53.340;-6.308;2023-09-18T12:30:53;1.88;;;0.68;;
82265;SDS011;71866;53.340;-6.308;2023-09-18T12:33:19;7.57;;;0.73;;
82265;SDS011;71866;53.340;-6.308;2023-09-18T12:35:49;4.63;;;0.50;;
82265;SDS011;71866;53.340;-6.308;2023-09-18T12:38:16;2.63;;;0.70;;
82265;SDS011;71866;53.340;-6.308;2023-09-18T12:40:45;4.28;;;0.52;;
82265;SDS011;71866;53.340;-6.308;2023-09-18T12:43:12;2.85;;;0.68;;
82265;SDS011;71866;53.340;-6.308;2023-09-18T12:45:40;2.60;;;0.40;;
82265;SDS011;71866;53.340;-6.308;2023-09-18T12:48:08;0.45;;;0.20;;
82265;SDS011;71866;53.340;-6.308;2023-09-18T12:50:35;2.65;;;0.45;;
82265;SDS011;71866;53.340;-6.308;2023-09-18T12:53:08;3.58;;;0.90;;
82265;SDS011;71866;53.340;-6.308;2023-09-18T12:55:36;2.92;;;0.77;;
82265;SDS011;71866;53.340;-6.308;2023-09-18T12:58:03;2.50;;;1.10;;
82265;SDS011;71866;53.340;-6.308;2023-09-18T13:00:30;4.05;;;0.60;;
82265;SDS011;71866;53.340;-6.308;2023-09-18T13:02:57;1.88;;;0.50;;
82265;SDS011;71866;53.340;-6.308;2023-09-18T13:05:24;2.78;;;0.60;;
82265;SDS011;71866;53.340;-6.308;2023-09-18T13:07:53;2.15;;;0.45;;
82265;SDS011;71866;53.340;-6.308;2023-09-18T13:10:20;5.72;;;0.70;;
82265;SDS011;71866;53.340;-6.308;2023-09-18T13:12:52;1.98;;;0.40;;
82265;SDS011;71866;53.340;-6.308;2023-09-18T13:17:57;1.90;;;0.40;;
82265;SDS011;71866;53.340;-6.308;2023-09-18T13:20:26;0.80;;;0.30;;
82265;SDS011;71866;53.340;-6.308;2023-09-18T13:22:55;1.45;;;0.40;;
82265;SDS011;71866;53.340;-6.308;2023-09-18T13:25:33;1.38;;;0.20;;
82265;SDS011;71866;53.340;-6.308;2023-09-18T13:28:02;2.42;;;0.73;;
82265;SDS011;71866;53.340;-6.308;2023-09-18T13:30:32;0.40;;;0.28;;
82265;SDS011;71866;53.340;-6.308;2023-09-18T13:33:03;1.38;;;0.28;;
82265;SDS011;71866;53.340;-6.308;2023-09-18T13:35:42;2.35;;;0.45;;
82265;SDS011;71866;53.340;-6.308;2023-09-18T13:38:10;0.55;;;0.20;;
82265;SDS011;71866;53.340;-6.308;2023-09-18T13:40:38;2.75;;;0.40;;
82265;SDS011;71866;53.340;-6.308;2023-09-18T13:43:06;2.20;;;0.32;;
82265;SDS011;71866;53.340;-6.308;2023-09-18T13:45:35;4.50;;;0.70;;
82265;SDS011;71866;53.340;-6.308;2023-09-18T13:48:03;1.13;;;0.40;;
82265;SDS011;71866;53.340;-6.308;2023-09-18T13:50:31;2.97;;;0.40;;
82265;SDS011;71866;53.340;-6.308;2023-09-18T13:53:01;1.10;;;0.30;;
82265;SDS011;71866;53.340;-6.308;2023-09-18T13:55:30;2.63;;;0.32;;
82265;SDS011;71866;53.340;-6.308;2023-09-18T13:57:57;2.90;;;0.50;;
82265;SDS011;71866;53.340;-6.308;2023-09-18T14:00:24;2.42;;;0.50;;
82265;SDS011;71866;53.340;-6.308;2023-09-18T14:02:51;8.27;;;0.75;;
82265;SDS011;71866;53.340;-6.308;2023-09-18T14:05:18;3.42;;;0.50;;
82265;SDS011;71866;53.340;-6.308;2023-09-18T14:07:46;4.72;;;0.50;;
82265;SDS011;71866;53.340;-6.308;2023-09-18T14:10:14;2.50;;;0.50;;
82265;SDS011;71866;53.340;-6.308;2023-09-18T14:12:42;3.05;;;0.65;;
82265;SDS011;71866;53.340;-6.308;2023-09-18T14:15:11;3.38;;;0.60;;
82265;SDS011;71866;53.340;-6.308;2023-09-18T14:17:38;1.92;;;0.30;;
82265;SDS011;71866;53.340;-6.308;2023-09-18T14:20:06;1.55;;;0.40;;
82265;SDS011;71866;53.340;-6.308;2023-09-18T14:22:34;3.72;;;0.50;;
82265;SDS011;71866;53.340;-6.308;2023-09-18T14:25:02;3.08;;;0.32;;
82265;SDS011;71866;53.340;-6.308;2023-09-18T14:27:29;2.05;;;0.20;;
82265;SDS011;71866;53.340;-6.308;2023-09-18T14:29:57;1.20;;;0.30;;
82265;SDS011;71866;53.340;-6.308;2023-09-18T14:32:24;2.60;;;0.35;;
82265;SDS011;71866;53.340;-6.308;2023-09-18T14:34:51;1.40;;;0.40;;
82265;SDS011;71866;53.340;-6.308;2023-09-18T14:37:18;2.47;;;0.30;;
82265;SDS011;71866;53.340;-6.308;2023-09-18T14:39:46;3.60;;;0.57;;
82265;SDS011;71866;53.340;-6.308;2023-09-18T14:42:14;0.68;;;0.22;;
82265;SDS011;71866;53.340;-6.308;2023-09-18T14:44:40;1.85;;;0.32;;
82265;SDS011;71866;53.340;-6.308;2023-09-18T14:47:08;0.60;;;0.22;;
82265;SDS011;71866;53.340;-6.308;2023-09-18T14:49:36;2.58;;;0.50;;
82265;SDS011;71866;53.340;-6.308;2023-09-18T14:52:03;1.65;;;0.45;;
82265;SDS011;71866;53.340;-6.308;2023-09-18T14:54:30;2.60;;;0.30;;
82265;SDS011;71866;53.340;-6.308;2023-09-18T14:56:57;2.58;;;0.50;;
82265;SDS011;71866;53.340;-6.308;2023-09-18T14:59:25;2.38;;;0.40;;
82265;SDS011;71866;53.340;-6.308;2023-09-18T15:02:06;1.00;;;0.20;;
82265;SDS011;71866;53.340;-6.308;2023-09-18T15:04:34;2.30;;;0.45;;
82265;SDS011;71866;53.340;-6.308;2023-09-18T15:07:01;1.50;;;0.47;;
82265;SDS011;71866;53.340;-6.308;2023-09-18T15:09:29;2.13;;;0.57;;